Time;durP1;ratioP1;P1;durP2;ratioP2;P2;SDS_P1;SDS_P2;PMS_P1;PMS_P2;Temp;Humidity;BMP_temperature;BMP_pressure;BME280_temperature;BME280_humidity;BME280_pressure;Samples;Min_cycle;Max_cycle;Signal;HPM_P1;HPM_P2
2022/07/16 00:01:50;;;;;;;5.72;2.50;;;15.00;99.90;;;;;;5065962;28;20039;-64
2022/07/16 00:04:16;;;;;;;6.65;2.50;;;14.90;99.90;;;;;;5068727;28;20024;-64
2022/07/16 00:06:43;;;;;;;7.07;2.50;;;14.90;99.90;;;;;;5069261;28;20480;-64
2022/07/16 00:09:10;;;;;;;9.25;2.90;;;14.90;99.90;;;;;;5050859;28;20032;-64
2022/07/16 00:11:36;;;;;;;7.80;2.97;;;14.70;99.90;;;;;;5067623;28;20029;-63
2022/07/16 00:14:01;;;;;;;9.02;3.05;;;14.60;99.90;;;;;;5068486;28;20472;-64
2022/07/16 00:16:27;;;;;;;6.57;2.70;;;14.40;99.90;;;;;;5068446;28;20020;-63
2022/07/16 00:21:37;;;;;;;13.30;2.97;;;14.40;99.90;;;;;;5069118;28;20032;-64
2022/07/16 00:24:02;;;;;;;10.35;3.10;;;14.30;99.90;;;;;;5047610;28;20024;-64
2022/07/16 00:26:28;;;;;;;8.98;2.95;;;14.20;99.90;;;;;;5050103;28;20517;-64
2022/07/16 00:28:54;;;;;;;10.85;3.30;;;14.30;99.90;;;;;;5050878;28;20115;-63
2022/07/16 00:31:19;;;;;;;10.48;3.28;;;14.30;99.90;;;;;;5050067;28;20405;-64
2022/07/16 00:33:45;;;;;;;9.13;3.10;;;14.40;99.90;;;;;;5068701;28;20025;-64
2022/07/16 00:36:11;;;;;;;10.10;2.92;;;14.60;99.90;;;;;;5068547;28;20480;-63
2022/07/16 00:38:36;;;;;;;9.13;3.60;;;14.70;99.90;;;;;;5067963;28;20384;-64
2022/07/16 00:41:02;;;;;;;8.00;2.85;;;14.80;99.90;;;;;;5066596;28;20036;-64
2022/07/16 00:43:28;;;;;;;8.10;2.92;;;15.10;99.90;;;;;;5067797;28;20020;-64
2022/07/16 00:45:54;;;;;;;9.85;3.10;;;15.40;99.90;;;;;;5068105;28;20469;-64
2022/07/16 00:48:19;;;;;;;8.77;3.03;;;15.50;99.90;;;;;;5067791;28;20036;-63
2022/07/16 00:50:45;;;;;;;9.38;3.03;;;15.60;99.90;;;;;;5068447;28;20016;-64
2022/07/16 00:53:11;;;;;;;9.75;2.80;;;15.80;99.90;;;;;;5068898;28;20051;-64
2022/07/16 00:55:38;;;;;;;8.40;3.03;;;16.00;99.90;;;;;;5067699;28;20388;-64
2022/07/16 00:58:04;;;;;;;8.77;3.00;;;15.90;99.90;;;;;;5050860;28;20402;-64
2022/07/16 01:00:30;;;;;;;9.02;2.63;;;16.20;99.90;;;;;;5066845;28;20128;-63
2022/07/16 01:02:57;;;;;;;8.65;3.10;;;16.20;99.90;;;;;;5068340;28;20029;-64
2022/07/16 01:05:24;;;;;;;8.10;2.72;;;16.20;99.90;;;;;;5067760;28;20024;-64
2022/07/16 01:07:49;;;;;;;8.25;3.00;;;16.20;99.90;;;;;;5068077;28;20476;-64
2022/07/16 01:10:18;;;;;;;9.80;3.20;;;16.20;99.90;;;;;;5067611;28;20035;-63
2022/07/16 01:12:45;;;;;;;6.47;2.65;;;16.20;99.90;;;;;;5066385;28;20078;-64
2022/07/16 01:15:11;;;;;;;6.35;2.53;;;16.30;99.90;;;;;;5068183;28;20025;-64
2022/07/16 01:17:37;;;;;;;11.88;2.92;;;16.40;99.90;;;;;;5067355;28;20021;-64
2022/07/16 01:20:05;;;;;;;10.35;3.33;;;16.40;99.90;;;;;;5049900;28;20028;-63
2022/07/16 01:22:31;;;;;;;7.43;2.90;;;16.40;99.90;;;;;;5063938;28;20376;-64
2022/07/16 01:24:56;;;;;;;9.88;3.42;;;16.40;99.90;;;;;;5067728;28;20017;-64
2022/07/16 01:27:22;;;;;;;7.10;3.00;;;16.40;99.90;;;;;;5049300;28;20127;-64
2022/07/16 01:29:48;;;;;;;8.40;3.20;;;16.30;99.90;;;;;;5067486;28;20077;-64
2022/07/16 01:32:14;;;;;;;8.20;2.90;;;16.30;99.90;;;;;;5067856;28;20020;-64
2022/07/16 01:34:40;;;;;;;11.90;3.58;;;16.20;99.90;;;;;;5049665;28;20025;-64
2022/07/16 01:37:08;;;;;;;7.95;3.20;;;16.10;99.90;;;;;;5049895;28;20055;-63
2022/07/16 01:39:37;;;;;;;8.35;3.25;;;16.10;99.90;;;;;;5063832;28;20028;-64
2022/07/16 01:42:04;;;;;;;11.30;2.90;;;16.10;99.90;;;;;;5047700;28;20037;-64
2022/07/16 01:44:32;;;;;;;8.02;2.85;;;16.10;99.90;;;;;;5067047;28;20107;-63
2022/07/16 01:46:58;;;;;;;9.27;3.25;;;15.90;99.90;;;;;;5067495;28;20155;-64
2022/07/16 01:49:29;;;;;;;8.30;3.08;;;16.00;99.90;;;;;;5050299;28;20032;-63
2022/07/16 01:51:54;;;;;;;9.60;3.40;;;16.20;99.90;;;;;;5068353;28;20109;-64
2022/07/16 01:54:20;;;;;;;7.32;3.33;;;16.10;99.90;;;;;;5071282;28;20459;-64
2022/07/16 01:56:46;;;;;;;8.40;3.17;;;16.10;99.90;;;;;;5053687;28;20469;-64
2022/07/16 01:59:11;;;;;;;8.77;3.03;;;16.10;99.90;;;;;;5071845;28;20040;-64
2022/07/16 02:01:37;;;;;;;10.98;3.38;;;16.00;99.90;;;;;;5053017;28;20021;-64
2022/07/16 02:04:03;;;;;;;10.68;3.00;;;15.90;99.90;;;;;;5071314;28;20097;-64
2022/07/16 02:06:28;;;;;;;13.43;3.20;;;16.00;99.90;;;;;;5071406;28;20410;-64
2022/07/16 02:08:54;;;;;;;9.60;3.20;;;16.00;99.90;;;;;;5071385;28;20115;-68
2022/07/16 02:11:20;;;;;;;8.77;2.95;;;15.90;99.90;;;;;;5070008;28;20071;-68
2022/07/16 02:13:46;;;;;;;8.07;2.90;;;15.90;99.90;;;;;;5071705;28;20032;-68
2022/07/16 02:16:11;;;;;;;8.35;2.88;;;15.90;99.90;;;;;;5071667;28;20074;-67
2022/07/16 02:18:37;;;;;;;11.63;2.90;;;15.90;99.90;;;;;;5071064;28;20029;-67
2022/07/16 02:21:04;;;;;;;8.40;2.83;;;15.90;99.90;;;;;;5071869;28;20435;-67
2022/07/16 02:23:30;;;;;;;8.05;3.00;;;15.90;99.90;;;;;;5071924;28;20066;-68
2022/07/16 02:25:56;;;;;;;7.30;2.60;;;15.90;99.90;;;;;;5071659;28;20032;-67
2022/07/16 02:28:21;;;;;;;11.40;3.00;;;16.00;99.90;;;;;;5070958;28;20020;-68
2022/07/16 02:30:48;;;;;;;8.18;2.90;;;15.90;99.90;;;;;;5071579;28;20108;-67
2022/07/16 02:33:18;;;;;;;7.32;2.80;;;16.00;99.90;;;;;;5071494;28;20074;-68
2022/07/16 02:35:44;;;;;;;7.77;2.67;;;16.10;99.90;;;;;;5071687;28;20024;-67
2022/07/16 02:38:11;;;;;;;9.27;2.70;;;16.10;99.90;;;;;;5071684;28;20028;-68
2022/07/16 02:40:37;;;;;;;8.93;2.70;;;16.10;99.90;;;;;;5052524;28;20621;-68
2022/07/16 02:43:05;;;;;;;11.63;2.67;;;16.10;99.90;;;;;;5069553;28;20081;-68
2022/07/16 02:45:33;;;;;;;9.00;2.53;;;16.20;99.90;;;;;;5052803;28;20069;-68
2022/07/16 02:47:59;;;;;;;9.13;2.80;;;16.10;99.90;;;;;;5070295;28;20103;-68
2022/07/16 02:50:24;;;;;;;9.13;2.60;;;16.20;99.90;;;;;;5070607;28;20619;-68
2022/07/16 02:52:50;;;;;;;6.47;2.40;;;16.20;99.90;;;;;;5071386;28;20024;-68
2022/07/16 02:55:16;;;;;;;8.38;2.78;;;16.10;99.90;;;;;;5069003;28;20020;-68
2022/07/16 02:57:42;;;;;;;11.93;3.05;;;16.10;99.90;;;;;;5070752;28;20658;-67
2022/07/16 03:00:11;;;;;;;7.13;2.60;;;16.20;99.90;;;;;;5070226;28;20045;-68
2022/07/16 03:02:37;;;;;;;7.55;3.45;;;16.20;99.90;;;;;;5070666;28;20454;-67
2022/07/16 03:05:04;;;;;;;9.35;3.00;;;16.30;99.90;;;;;;5071279;28;20377;-67
2022/07/16 03:07:30;;;;;;;8.50;2.42;;;16.30;99.90;;;;;;5052052;28;20229;-67
2022/07/16 03:09:55;;;;;;;8.48;2.83;;;16.30;99.90;;;;;;5052848;28;20454;-67
2022/07/16 03:12:21;;;;;;;7.82;3.00;;;16.30;99.90;;;;;;5068449;28;20116;-67
2022/07/16 03:14:47;;;;;;;8.00;2.63;;;16.30;99.90;;;;;;5071095;28;20016;-67
2022/07/16 03:17:13;;;;;;;8.45;2.80;;;16.30;99.90;;;;;;5070419;28;20024;-67
2022/07/16 03:19:39;;;;;;;7.65;2.60;;;16.40;99.90;;;;;;5051584;28;20024;-67
2022/07/16 03:22:05;;;;;;;8.27;2.95;;;16.30;99.90;;;;;;5066562;28;20024;-67
2022/07/16 03:24:31;;;;;;;8.10;2.90;;;16.40;99.90;;;;;;5070247;28;20067;-67
2022/07/16 03:26:57;;;;;;;7.13;2.30;;;16.40;99.90;;;;;;5070676;28;20040;-67
2022/07/16 03:29:23;;;;;;;9.57;2.60;;;16.30;99.90;;;;;;5069724;28;20484;-67
2022/07/16 03:31:49;;;;;;;7.35;2.78;;;16.30;99.90;;;;;;5052340;28;20020;-67
2022/07/16 03:34:14;;;;;;;6.90;3.03;;;16.30;99.90;;;;;;5070298;28;20020;-67
2022/07/16 03:36:40;;;;;;;9.18;2.83;;;16.30;99.90;;;;;;5066509;28;20029;-67
2022/07/16 03:39:06;;;;;;;9.15;2.40;;;16.40;99.90;;;;;;5069797;28;20031;-67
2022/07/16 03:41:34;;;;;;;8.05;2.65;;;16.40;99.90;;;;;;5067709;28;20059;-67
2022/07/16 03:44:01;;;;;;;6.70;2.65;;;16.40;99.90;;;;;;5068197;28;20093;-67
2022/07/16 03:46:28;;;;;;;9.18;2.65;;;16.30;99.90;;;;;;5051444;28;20032;-67
2022/07/16 03:48:54;;;;;;;7.45;2.70;;;16.40;99.90;;;;;;5051960;28;20017;-67
2022/07/16 03:51:20;;;;;;;9.45;2.50;;;16.30;99.90;;;;;;5070680;28;20020;-67
2022/07/16 03:53:45;;;;;;;7.82;2.40;;;16.40;99.90;;;;;;5069614;28;20025;-67
2022/07/16 03:56:11;;;;;;;11.27;3.67;;;16.40;99.90;;;;;;5069824;28;20051;-67
2022/07/16 03:58:37;;;;;;;7.00;2.25;;;16.40;99.90;;;;;;5068973;28;20040;-67
2022/07/16 04:01:02;;;;;;;8.00;2.88;;;16.40;99.90;;;;;;5069411;28;20094;-67
2022/07/16 04:03:28;;;;;;;10.95;2.30;;;16.40;99.90;;;;;;5069048;28;20032;-67
2022/07/16 04:05:54;;;;;;;7.15;2.30;;;16.40;99.90;;;;;;5069665;28;20505;-67
2022/07/16 04:08:20;;;;;;;6.78;2.50;;;16.40;99.90;;;;;;5069287;28;20064;-67
2022/07/16 04:10:45;;;;;;;7.10;2.55;;;16.40;99.90;;;;;;5068495;28;20031;-67
2022/07/16 04:13:11;;;;;;;6.50;2.45;;;16.40;99.90;;;;;;5048639;28;20128;-67
2022/07/16 04:15:37;;;;;;;7.13;2.65;;;16.40;99.90;;;;;;5068452;28;20021;-67
2022/07/16 04:18:02;;;;;;;6.97;2.45;;;16.40;99.90;;;;;;5069552;28;20431;-67
2022/07/16 04:20:28;;;;;;;7.55;2.50;;;16.50;99.90;;;;;;5069577;28;20430;-67
2022/07/16 04:22:54;;;;;;;7.45;2.30;;;16.40;99.90;;;;;;5051802;28;20021;-67
2022/07/16 04:25:20;;;;;;;6.68;2.50;;;16.50;99.90;;;;;;5069499;28;20032;-67
2022/07/16 04:27:47;;;;;;;8.23;2.08;;;16.50;99.90;;;;;;5051323;28;20098;-67
2022/07/16 04:30:13;;;;;;;9.93;2.42;;;16.50;99.90;;;;;;5051245;28;20153;-67
2022/07/16 04:32:40;;;;;;;6.32;2.50;;;16.50;99.90;;;;;;5050648;28;20020;-67
2022/07/16 04:35:07;;;;;;;7.22;2.60;;;16.50;99.90;;;;;;5069335;28;20082;-67
2022/07/16 04:37:34;;;;;;;6.57;2.20;;;16.50;99.90;;;;;;5067212;28;20064;-67
2022/07/16 04:39:59;;;;;;;6.38;2.47;;;16.60;99.90;;;;;;5069154;28;20036;-67
2022/07/16 04:42:25;;;;;;;6.97;2.38;;;16.60;99.90;;;;;;5066876;28;20419;-67
2022/07/16 04:44:51;;;;;;;7.03;2.58;;;16.60;99.90;;;;;;5068860;28;20400;-67
2022/07/16 04:47:16;;;;;;;8.95;2.55;;;16.60;99.90;;;;;;5068776;28;20036;-67
2022/07/16 04:49:42;;;;;;;8.63;2.65;;;16.60;99.90;;;;;;5068773;28;20017;-67
2022/07/16 04:52:08;;;;;;;7.35;2.20;;;16.60;99.90;;;;;;5068862;28;20020;-67
2022/07/16 04:54:34;;;;;;;7.93;2.38;;;16.70;99.90;;;;;;5068445;28;20032;-67
2022/07/16 04:56:59;;;;;;;7.18;2.72;;;16.60;99.90;;;;;;5065221;28;20020;-67
2022/07/16 04:59:26;;;;;;;8.63;2.97;;;16.60;99.90;;;;;;5068780;28;20072;-67
2022/07/16 05:01:52;;;;;;;6.90;2.97;;;16.70;99.90;;;;;;5046189;28;20419;-67
2022/07/16 05:04:17;;;;;;;7.47;2.38;;;16.70;99.90;;;;;;5068342;28;20025;-67
2022/07/16 05:06:43;;;;;;;10.45;2.78;;;16.70;99.90;;;;;;5068706;28;20035;-67
2022/07/16 05:09:09;;;;;;;11.23;2.60;;;16.70;99.90;;;;;;5050352;28;20256;-67
2022/07/16 05:11:35;;;;;;;7.70;2.60;;;16.80;99.90;;;;;;5066636;28;20037;-67
2022/07/16 05:14:01;;;;;;;7.25;2.80;;;16.80;99.90;;;;;;5068604;28;20473;-67
2022/07/16 05:16:26;;;;;;;8.27;2.78;;;16.80;99.90;;;;;;5049702;28;20431;-67
2022/07/16 05:18:52;;;;;;;6.22;2.40;;;16.90;99.90;;;;;;5068429;28;20059;-67
2022/07/16 05:21:18;;;;;;;11.18;3.00;;;16.90;99.90;;;;;;5047347;28;20047;-67
2022/07/16 05:23:44;;;;;;;11.68;3.08;;;17.00;99.90;;;;;;5068083;28;20044;-67
2022/07/16 05:26:10;;;;;;;10.25;3.03;;;17.10;99.90;;;;;;5068369;28;20067;-67
2022/07/16 05:28:36;;;;;;;12.90;2.90;;;17.20;99.90;;;;;;5068201;28;20035;-67
2022/07/16 05:31:02;;;;;;;9.73;3.08;;;17.20;99.90;;;;;;5070254;28;20035;-67
2022/07/16 05:33:27;;;;;;;7.25;2.92;;;17.30;99.90;;;;;;5049639;28;20145;-67
2022/07/16 05:35:53;;;;;;;8.90;2.97;;;17.20;99.90;;;;;;5067046;28;20020;-67
2022/07/16 05:38:19;;;;;;;10.88;3.22;;;17.20;99.90;;;;;;5067159;28;20517;-67
2022/07/16 05:40:44;;;;;;;11.73;3.60;;;17.20;99.90;;;;;;5050008;28;20020;-67
2022/07/16 05:43:10;;;;;;;8.57;3.00;;;17.30;99.90;;;;;;5066486;28;20138;-67
2022/07/16 05:45:37;;;;;;;10.43;3.33;;;17.30;99.90;;;;;;5068069;28;20107;-67
2022/07/16 05:48:03;;;;;;;8.50;3.03;;;17.30;99.90;;;;;;5068680;28;20043;-67
2022/07/16 05:50:28;;;;;;;8.18;3.30;;;17.40;99.90;;;;;;5050064;28;20016;-67
2022/07/16 05:52:54;;;;;;;8.57;3.10;;;17.40;99.90;;;;;;5068179;28;20104;-67
2022/07/16 05:55:20;;;;;;;9.63;2.95;;;17.60;99.90;;;;;;5050071;28;20039;-67
2022/07/16 05:57:46;;;;;;;8.98;2.72;;;17.60;99.90;;;;;;5046596;28;20420;-67
2022/07/16 06:00:12;;;;;;;7.78;3.17;;;17.70;99.90;;;;;;5049256;28;20044;-67
2022/07/16 06:02:41;;;;;;;9.02;3.20;;;17.70;99.90;;;;;;5048731;28;20023;-67
2022/07/16 06:05:08;;;;;;;7.77;2.90;;;17.70;99.90;;;;;;5049375;28;20490;-67
2022/07/16 06:07:34;;;;;;;11.80;3.53;;;17.80;99.90;;;;;;5067276;28;20039;-67
2022/07/16 06:10:00;;;;;;;8.52;3.33;;;17.70;99.90;;;;;;5068218;28;20480;-67
2022/07/16 06:12:26;;;;;;;10.52;3.97;;;17.60;99.90;;;;;;5066286;28;20028;-67
2022/07/16 06:14:52;;;;;;;10.38;3.42;;;17.50;99.90;;;;;;5067951;28;20008;-67
2022/07/16 06:17:17;;;;;;;10.52;3.80;;;17.50;99.90;;;;;;5050087;28;20078;-67
2022/07/16 06:19:43;;;;;;;9.40;3.92;;;17.50;99.90;;;;;;5066978;28;20028;-67
2022/07/16 06:22:10;;;;;;;8.82;3.55;;;17.40;99.90;;;;;;5068614;28;20031;-67
2022/07/16 06:24:36;;;;;;;10.25;3.78;;;17.40;99.90;;;;;;5049632;28;20029;-66
2022/07/16 06:27:02;;;;;;;9.38;3.70;;;17.50;99.90;;;;;;5068337;28;20021;-67
2022/07/16 06:29:28;;;;;;;9.25;3.90;;;17.70;99.90;;;;;;5067374;28;20468;-67
2022/07/16 06:31:54;;;;;;;10.73;3.92;;;17.80;99.90;;;;;;5046233;28;20028;-67
2022/07/16 06:34:19;;;;;;;8.77;3.58;;;17.80;99.90;;;;;;5068103;28;20031;-67
2022/07/16 06:36:45;;;;;;;8.77;3.40;;;17.80;99.90;;;;;;5067030;28;20099;-67
2022/07/16 06:39:11;;;;;;;9.88;3.78;;;17.70;99.90;;;;;;5070100;28;20089;-67
2022/07/16 06:41:37;;;;;;;8.43;3.72;;;17.70;99.90;;;;;;5067291;28;20040;-66
2022/07/16 06:44:04;;;;;;;8.85;3.63;;;17.60;99.90;;;;;;5070025;28;20032;-67
2022/07/16 06:46:30;;;;;;;8.70;2.95;;;17.90;99.90;;;;;;5070515;28;20033;-67
2022/07/16 06:48:55;;;;;;;7.55;2.97;;;18.00;99.90;;;;;;5070140;28;20031;-67
2022/07/16 06:51:21;;;;;;;8.02;3.05;;;17.90;99.90;;;;;;5071061;28;20021;-67
2022/07/16 06:53:47;;;;;;;7.63;2.80;;;17.90;99.90;;;;;;5070661;28;20021;-67
2022/07/16 06:56:12;;;;;;;8.00;3.15;;;17.80;99.90;;;;;;5071768;28;20052;-67
2022/07/16 06:58:38;;;;;;;9.43;2.97;;;17.80;99.90;;;;;;5070824;28;20032;-67
2022/07/16 07:01:03;;;;;;;7.45;3.00;;;18.10;99.90;;;;;;5051404;28;20036;-67
2022/07/16 07:03:30;;;;;;;7.57;2.72;;;18.20;99.90;;;;;;5051396;28;20032;-67
2022/07/16 07:05:55;;;;;;;7.47;3.30;;;18.20;99.90;;;;;;5071192;28;20476;-67
2022/07/16 07:08:21;;;;;;;8.20;2.92;;;18.20;99.90;;;;;;5072266;28;20032;-68
2022/07/16 07:10:47;;;;;;;8.95;2.90;;;18.20;99.90;;;;;;5069927;28;20550;-67
2022/07/16 07:13:12;;;;;;;9.27;2.50;;;18.40;99.90;;;;;;5051777;28;20020;-67
2022/07/16 07:15:38;;;;;;;9.82;2.95;;;18.40;99.90;;;;;;5053507;28;20492;-67
2022/07/16 07:18:04;;;;;;;6.70;2.58;;;18.40;99.90;;;;;;5071280;28;20102;-67
2022/07/16 07:20:29;;;;;;;4.95;1.90;;;18.50;99.90;;;;;;5051326;28;20024;-68
2022/07/16 07:22:55;;;;;;;5.82;2.30;;;18.60;99.90;;;;;;5053434;28;20027;-67
2022/07/16 07:25:21;;;;;;;5.07;2.08;;;18.90;99.90;;;;;;5071684;28;20072;-67
2022/07/16 07:27:47;;;;;;;9.15;2.40;;;19.00;99.90;;;;;;5071389;28;20032;-67
2022/07/16 07:30:13;;;;;;;5.13;1.73;;;18.70;99.90;;;;;;5052116;28;20028;-66
2022/07/16 07:32:38;;;;;;;4.20;1.60;;;18.60;99.90;;;;;;5070170;28;20024;-67
2022/07/16 07:35:06;;;;;;;5.72;2.00;;;18.50;99.90;;;;;;5047814;28;20024;-67
2022/07/16 07:37:31;;;;;;;5.28;2.10;;;18.60;99.90;;;;;;5065298;28;20023;-66
2022/07/16 07:39:57;;;;;;;6.78;2.20;;;18.80;99.90;;;;;;5066116;28;20052;-65
2022/07/16 07:42:23;;;;;;;5.28;1.88;;;18.70;99.90;;;;;;5069625;28;20074;-66
2022/07/16 07:44:49;;;;;;;4.47;1.63;;;19.30;99.90;;;;;;5052186;28;20066;-65
2022/07/16 07:47:14;;;;;;;4.97;1.80;;;19.90;99.90;;;;;;5051362;28;20027;-65
2022/07/16 07:49:40;;;;;;;5.25;1.33;;;19.60;99.90;;;;;;5069506;28;20458;-65
2022/07/16 07:52:07;;;;;;;3.97;1.15;;;19.60;99.90;;;;;;5069713;28;20107;-65
2022/07/16 07:54:32;;;;;;;4.47;1.30;;;19.70;99.90;;;;;;5070113;28;20096;-65
2022/07/16 07:56:58;;;;;;;5.43;1.38;;;20.00;99.90;;;;;;5069514;28;20161;-65
2022/07/16 07:59:23;;;;;;;4.05;1.50;;;20.00;99.90;;;;;;5052901;28;20060;-64
2022/07/16 08:01:49;;;;;;;2.63;1.05;;;20.00;99.90;;;;;;5069493;28;20404;-64
2022/07/16 08:04:15;;;;;;;3.53;1.30;;;19.80;99.90;;;;;;5069180;28;20032;-64
2022/07/16 08:06:41;;;;;;;3.22;1.15;;;19.60;99.90;;;;;;5069921;28;20029;-64
2022/07/16 08:09:07;;;;;;;6.43;1.20;;;19.40;99.90;;;;;;5070284;28;20040;-68
2022/07/16 08:11:32;;;;;;;5.22;1.40;;;19.00;99.90;;;;;;5066694;28;20088;-67
2022/07/16 08:13:59;;;;;;;3.97;1.25;;;19.00;99.90;;;;;;5069501;28;20495;-67
2022/07/16 08:16:25;;;;;;;3.85;1.25;;;18.80;99.90;;;;;;5068595;28;20035;-68
2022/07/16 08:18:51;;;;;;;3.65;1.38;;;19.00;99.90;;;;;;5049388;28;20116;-68
2022/07/16 08:21:17;;;;;;;5.85;1.25;;;19.10;99.90;;;;;;5066902;28;20036;-64
2022/07/16 08:26:27;;;;;;;5.68;1.30;;;19.60;99.90;;;;;;5063579;28;20035;-64
2022/07/16 08:28:53;;;;;;;4.35;1.48;;;20.50;99.90;;;;;;5047550;28;20028;-65
2022/07/16 08:31:18;;;;;;;3.45;1.27;;;21.30;99.90;;;;;;5049374;28;20472;-65
2022/07/16 08:33:44;;;;;;;4.03;1.20;;;22.00;99.90;;;;;;5067980;28;20074;-65
2022/07/16 08:36:10;;;;;;;3.40;1.30;;;22.10;99.00;;;;;;5070434;28;20031;-64
2022/07/16 08:38:35;;;;;;;4.90;1.45;;;21.60;99.90;;;;;;5069096;28;20067;-65
2022/07/16 08:41:02;;;;;;;5.93;1.45;;;21.80;99.60;;;;;;5049486;28;20056;-65
2022/07/16 08:43:29;;;;;;;6.82;1.35;;;21.40;99.90;;;;;;5069738;28;20039;-65
2022/07/16 08:45:56;;;;;;;3.78;1.30;;;21.00;99.90;;;;;;5069206;28;20028;-65
2022/07/16 08:48:23;;;;;;;5.50;1.55;;;20.70;99.90;;;;;;5068532;28;20107;-67
2022/07/16 08:50:51;;;;;;;5.10;1.33;;;20.50;99.90;;;;;;5070865;28;20033;-67
2022/07/16 08:53:22;;;;;;;3.72;1.20;;;20.50;99.90;;;;;;5052391;28;20119;-68
2022/07/16 08:55:51;;;;;;;7.57;1.50;;;20.60;99.90;;;;;;5070456;28;20028;-68
2022/07/16 08:58:17;;;;;;;5.15;1.42;;;21.60;99.90;;;;;;5069593;28;20174;-67
2022/07/16 09:00:42;;;;;;;4.32;1.77;;;22.20;98.60;;;;;;5069065;28;20124;-68
2022/07/16 09:03:11;;;;;;;5.38;1.38;;;22.10;98.20;;;;;;5070312;28;20036;-68
2022/07/16 09:05:37;;;;;;;6.35;1.70;;;21.00;98.20;;;;;;5069934;28;20017;-67
2022/07/16 09:08:04;;;;;;;5.10;1.45;;;20.50;99.40;;;;;;5067526;28;20167;-67
2022/07/16 09:10:34;;;;;;;5.28;1.33;;;20.80;99.30;;;;;;5069253;28;20005;-67
2022/07/16 09:13:00;;;;;;;8.85;1.67;;;22.20;97.40;;;;;;5066622;28;20016;-67
2022/07/16 09:15:35;;;;;;;6.15;1.50;;;21.70;97.00;;;;;;5068770;28;20035;-67
2022/07/16 09:18:24;;;;;;;6.50;1.40;;;21.00;98.30;;;;;;5067187;28;20028;-67
2022/07/16 09:20:55;;;;;;;5.65;1.52;;;21.20;98.40;;;;;;5068128;28;20051;-67
2022/07/16 09:23:25;;;;;;;4.13;1.30;;;20.90;98.80;;;;;;5068982;28;20020;-67
2022/07/16 09:25:58;;;;;;;2.42;0.98;;;21.20;98.70;;;;;;5067943;28;20036;-67
2022/07/16 09:28:26;;;;;;;5.85;1.40;;;22.30;97.10;;;;;;5068769;28;20118;-67
2022/07/16 09:30:52;;;;;;;4.13;1.48;;;22.40;95.80;;;;;;5068285;28;20020;-67
2022/07/16 09:33:20;;;;;;;3.92;1.30;;;22.20;96.20;;;;;;5069121;28;20706;-67
2022/07/16 09:35:47;;;;;;;7.00;1.48;;;22.30;96.10;;;;;;5067886;28;20028;-65
2022/07/16 09:38:13;;;;;;;5.80;1.48;;;22.50;97.00;;;;;;5068652;28;20016;-65
2022/07/16 09:40:45;;;;;;;5.05;1.35;;;23.50;95.70;;;;;;5049869;28;20052;-65
2022/07/16 09:43:13;;;;;;;4.72;1.55;;;23.60;94.10;;;;;;5065327;28;20489;-65
2022/07/16 09:45:40;;;;;;;4.20;1.40;;;24.20;92.70;;;;;;5066013;28;20333;-65
2022/07/16 09:48:29;;;;;;;5.53;1.42;;;24.30;92.20;;;;;;5049367;28;20039;-64
2022/07/16 09:50:57;;;;;;;6.78;1.50;;;22.70;93.60;;;;;;5067842;28;20079;-66
2022/07/16 09:53:25;;;;;;;7.50;1.67;;;22.00;94.70;;;;;;5051030;28;20085;-66
2022/07/16 09:56:02;;;;;;;5.35;1.38;;;21.80;95.10;;;;;;5050030;28;20369;-67
2022/07/16 09:58:29;;;;;;;4.35;1.38;;;21.10;96.00;;;;;;5067480;28;20020;-68
2022/07/16 10:00:55;;;;;;;4.20;1.50;;;20.90;96.50;;;;;;5068902;28;20051;-68
2022/07/16 10:03:21;;;;;;;4.95;1.50;;;21.80;95.60;;;;;;5070135;28;20020;-68
2022/07/16 10:05:47;;;;;;;5.63;1.50;;;22.30;93.90;;;;;;5069322;28;20400;-68
2022/07/16 10:08:14;;;;;;;6.55;1.50;;;23.10;93.20;;;;;;5069019;28;20031;-65
2022/07/16 10:10:39;;;;;;;5.95;1.60;;;23.10;92.80;;;;;;5070713;28;20044;-66
2022/07/16 10:13:05;;;;;;;8.43;1.58;;;22.30;92.90;;;;;;5071279;28;20118;-67
2022/07/16 10:15:31;;;;;;;6.82;1.77;;;22.20;93.40;;;;;;5054212;28;20028;-65
2022/07/16 10:17:58;;;;;;;5.18;1.30;;;22.90;93.20;;;;;;5071712;28;20700;-65
2022/07/16 10:20:24;;;;;;;4.50;1.50;;;24.30;91.10;;;;;;5072894;28;20103;-65
2022/07/16 10:22:50;;;;;;;4.55;1.40;;;23.90;90.80;;;;;;5064904;28;20475;-64
2022/07/16 10:25:22;;;;;;;5.70;1.50;;;23.30;90.90;;;;;;5070421;28;20032;-67
2022/07/16 10:27:49;;;;;;;7.10;1.40;;;22.50;91.90;;;;;;5069055;28;20100;-68
2022/07/16 10:30:22;;;;;;;3.33;1.20;;;22.20;92.40;;;;;;5049060;28;20028;-68
2022/07/16 10:33:00;;;;;;;5.10;1.33;;;22.60;92.30;;;;;;5067972;28;20067;-68
2022/07/16 10:35:48;;;;;;;5.50;1.25;;;22.30;91.90;;;;;;5064146;28;20027;-66
2022/07/16 10:38:20;;;;;;;4.35;1.30;;;22.40;91.80;;;;;;5049759;28;20132;-67
2022/07/16 10:41:03;;;;;;;3.70;1.20;;;23.60;91.00;;;;;;5068196;28;20675;-67
2022/07/16 10:43:29;;;;;;;3.90;0.98;;;23.90;89.90;;;;;;5069012;28;20032;-67
2022/07/16 10:46:01;;;;;;;4.25;1.25;;;23.50;88.40;;;;;;5069532;28;20425;-67
2022/07/16 10:48:37;;;;;;;5.38;1.45;;;22.90;90.20;;;;;;5051077;28;20012;-66
2022/07/16 10:51:19;;;;;;;3.90;1.15;;;23.00;90.40;;;;;;5038866;28;20418;-67
2022/07/16 10:54:02;;;;;;;3.03;1.05;;;22.90;90.10;;;;;;5068019;28;20451;-67
2022/07/16 10:56:32;;;;;;;5.68;1.50;;;23.50;90.00;;;;;;5068412;28;20028;-67
2022/07/16 10:58:58;;;;;;;8.20;2.10;;;23.60;89.90;;;;;;5049412;28;20063;-67
2022/07/16 11:01:24;;;;;;;5.63;1.40;;;22.70;89.90;;;;;;5051385;28;20039;-68
2022/07/16 11:03:53;;;;;;;5.65;1.60;;;23.20;90.30;;;;;;5063293;28;20455;-65
2022/07/16 11:06:21;;;;;;;4.00;1.48;;;24.40;88.80;;;;;;5069252;28;20035;-65
2022/07/16 11:08:51;;;;;;;6.03;1.83;;;23.60;88.60;;;;;;5068722;28;20029;-65
2022/07/16 11:11:18;;;;;;;4.90;1.50;;;23.00;90.30;;;;;;5067367;28;20031;-65
2022/07/16 11:13:45;;;;;;;6.35;1.50;;;23.60;89.60;;;;;;5069073;28;20412;-65
2022/07/16 11:16:11;;;;;;;6.30;1.60;;;24.90;88.60;;;;;;5064289;28;20249;-65
2022/07/16 11:18:38;;;;;;;6.95;1.80;;;24.90;86.80;;;;;;5070560;28;20059;-69
2022/07/16 11:21:07;;;;;;;5.25;1.60;;;24.80;88.10;;;;;;5070622;28;20646;-69
2022/07/16 11:23:54;;;;;;;6.43;2.30;;;25.80;85.20;;;;;;5069410;28;20128;-65
2022/07/16 11:26:21;;;;;;;4.03;1.30;;;26.50;83.40;;;;;;5065869;28;20044;-68
2022/07/16 11:28:56;;;;;;;6.17;1.70;;;25.30;83.00;;;;;;5048496;28;20428;-68
2022/07/16 11:31:29;;;;;;;4.72;1.30;;;24.40;85.60;;;;;;5065817;28;20428;-68
2022/07/16 11:34:04;;;;;;;4.82;1.23;;;24.00;86.00;;;;;;5074639;28;20012;-68
2022/07/16 11:36:32;;;;;;;5.45;1.38;;;24.10;85.30;;;;;;5051736;28;20497;-66
2022/07/16 11:39:07;;;;;;;4.05;1.58;;;24.80;85.00;;;;;;5063144;28;20185;-66
2022/07/16 11:41:33;;;;;;;;;;;25.50;85.80;;;;;;5067614;28;20036;-66
2022/07/16 11:44:06;;;;;;;;;;;25.80;84.10;;;;;;5068268;28;19920;-66
2022/07/16 11:46:31;;;;;;;;;;;25.50;84.50;;;;;;5047059;28;19935;-66
2022/07/16 11:48:57;;;;;;;;;;;25.20;83.90;;;;;;5061619;28;20290;-64
2022/07/16 11:51:22;;;;;;;;;;;25.10;86.30;;;;;;5066456;28;19988;-64
2022/07/16 11:53:52;;;;;;;;;;;25.40;85.60;;;;;;5066570;28;20068;-64
2022/07/16 11:56:39;;;;;;;;;;;26.20;81.30;;;;;;5048933;28;19916;-65
2022/07/16 11:59:18;;;;;;;;;;;26.10;80.50;;;;;;5061504;28;20004;-65
2022/07/16 12:01:44;;;;;;;;;;;26.40;80.80;;;;;;5066881;28;19916;-65
2022/07/16 12:04:10;;;;;;;;;;;25.90;80.50;;;;;;5068274;28;19928;-65
2022/07/16 12:06:36;;;;;;;;;;;26.00;80.20;;;;;;5041955;28;19920;-66
2022/07/16 12:09:01;;;;;;;;;;;26.40;80.20;;;;;;5065994;28;19912;-66
2022/07/16 12:11:31;;;;;;;;;;;26.80;77.00;;;;;;5062802;28;20330;-64
2022/07/16 12:13:56;;;;;;;;;;;26.00;78.10;;;;;;5048733;28;20549;-64
2022/07/16 12:16:22;;;;;;;;;;;27.00;77.80;;;;;;5067322;28;19933;-64
2022/07/16 12:19:00;;;;;;;;;;;26.90;75.00;;;;;;5067332;28;20019;-67
2022/07/16 12:21:27;;;;;;;;;;;26.00;77.00;;;;;;5067558;28;19912;-67
2022/07/16 12:23:52;;;;;;;;;;;25.00;77.20;;;;;;5065294;28;19920;-67
2022/07/16 12:26:26;;;;;;;;;;;25.80;76.70;;;;;;5067485;28;19912;-67
2022/07/16 12:28:53;;;;;;;;;;;26.30;75.50;;;;;;5065937;28;19920;-68
2022/07/16 12:31:18;;;;;;;;;;;27.40;73.20;;;;;;5049056;28;19969;-68
2022/07/16 12:33:50;;;;;;;;;;;28.30;73.20;;;;;;5066669;28;19948;-68
2022/07/16 12:36:15;;;;;;;;;;;27.90;74.70;;;;;;5069794;28;19931;-69
2022/07/16 12:38:44;;;;;;;;;;;27.70;74.10;;;;;;5075688;28;20297;-69
2022/07/16 12:41:11;;;;;;;;;;;28.90;73.40;;;;;;5068337;28;20438;-67
2022/07/16 12:43:37;;;;;;;;;;;28.60;72.20;;;;;;5067993;28;19917;-67
2022/07/16 12:46:03;;;;;;;;;;;28.50;70.20;;;;;;5067837;28;19919;-70
2022/07/16 12:48:30;;;;;;;;;;;27.50;70.60;;;;;;5053986;28;20046;-71
2022/07/16 12:50:56;;;;;;;;;;;26.70;72.90;;;;;;5071061;28;19908;-68
2022/07/16 12:53:22;;;;;;;;;;;27.60;72.60;;;;;;5065072;28;20256;-70
2022/07/16 12:58:47;;;;;;;;;;;29.40;70.30;;;;;;5066202;28;19919;-68
2022/07/16 13:01:12;;;;;;;;;;;29.20;68.50;;;;;;5041435;28;19928;-66
2022/07/16 13:03:38;;;;;;;;;;;27.70;68.90;;;;;;5040481;28;19904;-67